Time;durP1;ratioP1;P1;durP2;ratioP2;P2;SDS_P1;SDS_P2;PMS_P1;PMS_P2;Temp;Humidity;BMP_temperature;BMP_pressure;BME280_temperature;BME280_humidity;BME280_pressure;Samples;Min_cycle;Max_cycle;Signal;HPM_P1;HPM_P2
2022/09/15 00:00:50;;;;;;;0.90;0.80;;;20.10;99.90;;;;;;5019210;28;20420;-69
2022/09/15 00:03:15;;;;;;;1.48;0.77;;;20.10;99.90;;;;;;5019182;28;20411;-70
2022/09/15 00:05:41;;;;;;;2.40;0.80;;;20.10;99.90;;;;;;5024002;28;20404;-70
2022/09/15 00:08:07;;;;;;;1.60;0.70;;;20.00;99.90;;;;;;5023445;28;20414;-70
2022/09/15 00:10:32;;;;;;;1.42;0.80;;;19.90;99.90;;;;;;5019344;28;20463;-70
2022/09/15 00:12:58;;;;;;;3.40;0.90;;;19.80;99.90;;;;;;5019942;28;20408;-71
2022/09/15 00:15:23;;;;;;;2.25;0.90;;;19.60;99.90;;;;;;5014627;28;20402;-69
2022/09/15 00:17:51;;;;;;;0.80;0.80;;;19.70;99.90;;;;;;5024337;28;20403;-70
2022/09/15 00:20:20;;;;;;;1.30;0.80;;;19.70;99.90;;;;;;5020927;28;20399;-70
2022/09/15 00:22:47;;;;;;;1.17;1.00;;;19.60;99.90;;;;;;5017002;28;20415;-70
2022/09/15 00:25:13;;;;;;;1.83;0.80;;;19.70;99.90;;;;;;5020884;28;20426;-70
2022/09/15 00:27:39;;;;;;;1.80;0.80;;;19.70;99.90;;;;;;5019329;28;20508;-70
2022/09/15 00:30:06;;;;;;;1.30;0.88;;;19.70;99.90;;;;;;5026114;28;20418;-69
2022/09/15 00:32:32;;;;;;;3.90;0.90;;;19.60;99.90;;;;;;5018747;28;20401;-70
2022/09/15 00:34:58;;;;;;;1.70;1.00;;;19.70;99.90;;;;;;5018755;28;20408;-70
2022/09/15 00:37:24;;;;;;;2.53;1.17;;;19.70;99.90;;;;;;5022441;28;20398;-69
2022/09/15 00:39:49;;;;;;;3.40;1.43;;;19.70;99.90;;;;;;5026043;28;20388;-70
2022/09/15 00:42:20;;;;;;;2.10;0.70;;;19.70;99.90;;;;;;5020917;28;20433;-70
2022/09/15 00:44:57;;;;;;;2.10;0.90;;;19.60;99.90;;;;;;5021193;28;20952;-70
2022/09/15 00:47:28;;;;;;;1.30;0.90;;;19.60;99.90;;;;;;5018701;28;20407;-70
2022/09/15 00:50:00;;;;;;;1.70;0.90;;;19.50;99.90;;;;;;5018689;28;20444;-70
2022/09/15 00:52:42;;;;;;;1.38;0.80;;;19.50;99.90;;;;;;5019899;28;20766;-70
2022/09/15 00:55:19;;;;;;;1.20;0.80;;;19.50;99.90;;;;;;5026768;28;20418;-70
2022/09/15 00:58:10;;;;;;;3.50;1.10;;;19.40;99.90;;;;;;5016069;28;20415;-70
2022/09/15 01:00:36;;;;;;;2.43;0.80;;;19.50;99.90;;;;;;5022716;28;20403;-70
2022/09/15 01:03:02;;;;;;;1.80;0.93;;;19.50;99.90;;;;;;5025205;28;20415;-70
2022/09/15 01:05:41;;;;;;;1.35;0.75;;;19.50;99.90;;;;;;5019392;28;20888;-70
2022/09/15 01:08:13;;;;;;;1.33;0.90;;;19.50;99.90;;;;;;5024860;28;20414;-70
2022/09/15 01:10:40;;;;;;;2.20;0.80;;;19.50;99.90;;;;;;5011289;28;20389;-70
2022/09/15 01:13:10;;;;;;;2.00;1.10;;;19.50;99.90;;;;;;5025842;28;20477;-69
2022/09/15 01:15:52;;;;;;;1.20;0.60;;;19.50;99.90;;;;;;5021593;28;20408;-69
2022/09/15 01:18:26;;;;;;;2.28;0.80;;;19.50;99.90;;;;;;5026072;28;20417;-70
2022/09/15 01:21:16;;;;;;;4.20;0.95;;;19.50;99.90;;;;;;5018778;28;20414;-70
2022/09/15 01:23:54;;;;;;;2.00;0.90;;;19.50;99.90;;;;;;5017078;28;20408;-69
2022/09/15 01:26:38;;;;;;;0.90;0.70;;;19.60;99.90;;;;;;5020039;28;20488;-70
2022/09/15 01:29:21;;;;;;;0.80;0.63;;;19.60;99.90;;;;;;5020879;28;20415;-71
2022/09/15 01:35:19;;;;;;;0.93;0.60;;;19.70;99.90;;;;;;5026327;28;20765;-68
2022/09/15 01:38:07;;;;;;;1.20;0.80;;;19.80;99.90;;;;;;5013615;28;20413;-68
2022/09/15 01:40:45;;;;;;;1.00;0.70;;;19.80;99.90;;;;;;5018088;28;20904;-71
2022/09/15 01:43:13;;;;;;;1.30;0.90;;;19.80;99.90;;;;;;5019544;28;20956;-68
2022/09/15 01:45:43;;;;;;;1.60;0.80;;;19.90;99.90;;;;;;5017865;28;20405;-68
2022/09/15 01:48:09;;;;;;;0.73;0.60;;;19.90;99.90;;;;;;5006022;28;20412;-68
2022/09/15 01:50:44;;;;;;;2.40;0.90;;;19.90;99.90;;;;;;5015982;28;20428;-69
2022/09/15 01:53:16;;;;;;;1.30;1.20;;;19.90;99.90;;;;;;5014185;28;20381;-68
2022/09/15 01:56:06;;;;;;;0.90;0.50;;;20.10;99.90;;;;;;5010527;28;20401;-69
2022/09/15 01:58:32;;;;;;;1.00;0.90;;;20.10;99.90;;;;;;5017798;28;20419;-69
2022/09/15 02:01:04;;;;;;;1.40;0.70;;;20.10;99.90;;;;;;5018225;28;20462;-69
2022/09/15 02:03:50;;;;;;;1.35;0.60;;;20.10;99.90;;;;;;5022353;28;20742;-69
2022/09/15 02:06:34;;;;;;;1.10;0.55;;;20.10;99.90;;;;;;5017487;28;20434;-68
2022/09/15 02:09:24;;;;;;;1.30;0.60;;;20.10;99.90;;;;;;5017550;28;20401;-68
2022/09/15 02:12:07;;;;;;;2.40;0.82;;;20.10;99.90;;;;;;5016011;28;20957;-67
2022/09/15 02:14:51;;;;;;;1.20;0.80;;;20.10;99.90;;;;;;5020891;28;20383;-69
2022/09/15 02:17:19;;;;;;;3.00;0.80;;;20.10;99.90;;;;;;5025344;28;20747;-69
2022/09/15 02:19:50;;;;;;;0.70;0.60;;;19.90;99.90;;;;;;5021468;28;20502;-67
2022/09/15 02:22:22;;;;;;;1.13;0.50;;;19.90;99.90;;;;;;5020492;28;20399;-68
2022/09/15 02:25:01;;;;;;;0.70;0.60;;;20.00;99.90;;;;;;5019371;28;20777;-68
2022/09/15 02:27:30;;;;;;;1.40;0.60;;;19.90;99.90;;;;;;5014574;28;20467;-68
2022/09/15 02:30:02;;;;;;;1.60;0.60;;;20.00;99.90;;;;;;5024222;28;20453;-67
2022/09/15 02:32:29;;;;;;;1.20;0.80;;;20.00;99.90;;;;;;5013955;28;20437;-68
2022/09/15 02:34:57;;;;;;;1.00;0.80;;;20.00;99.90;;;;;;5018216;28;20407;-68
2022/09/15 02:37:25;;;;;;;1.00;0.57;;;20.00;99.90;;;;;;5025144;28;20980;-68
2022/09/15 02:39:56;;;;;;;0.80;0.52;;;20.10;99.90;;;;;;5019466;28;20403;-68
2022/09/15 02:42:26;;;;;;;0.80;0.70;;;20.10;99.90;;;;;;5022000;28;20472;-69
2022/09/15 02:44:52;;;;;;;2.45;1.40;;;20.00;99.90;;;;;;5026221;28;20410;-69
2022/09/15 02:47:18;;;;;;;1.10;0.70;;;20.00;99.90;;;;;;5012888;28;20407;-68
2022/09/15 02:49:43;;;;;;;1.10;0.73;;;20.00;99.90;;;;;;5022222;28;20479;-69
2022/09/15 02:52:09;;;;;;;2.25;0.88;;;20.00;99.90;;;;;;5023776;28;20431;-68
2022/09/15 02:54:34;;;;;;;1.60;0.70;;;20.10;99.90;;;;;;5023773;28;20406;-68
2022/09/15 02:57:00;;;;;;;0.70;0.60;;;20.00;99.90;;;;;;5024557;28;20445;-69
2022/09/15 02:59:26;;;;;;;0.85;0.73;;;19.90;99.90;;;;;;5021954;28;20450;-68
2022/09/15 03:01:52;;;;;;;2.40;0.80;;;19.90;99.90;;;;;;5024375;28;20403;-68
2022/09/15 03:04:18;;;;;;;0.70;0.70;;;19.50;99.90;;;;;;5023804;28;20387;-68
2022/09/15 03:06:43;;;;;;;1.73;1.10;;;19.20;99.90;;;;;;5025394;28;20478;-69
2022/09/15 03:09:09;;;;;;;2.10;0.90;;;18.60;99.90;;;;;;5022486;28;20950;-69
2022/09/15 03:11:35;;;;;;;2.10;1.30;;;18.00;99.90;;;;;;5024186;28;20403;-70
2022/09/15 03:14:04;;;;;;;1.52;1.10;;;17.60;99.90;;;;;;5025236;28;20880;-70
2022/09/15 03:16:33;;;;;;;1.60;0.90;;;17.60;99.90;;;;;;5027133;28;20409;-70
2022/09/15 03:18:59;;;;;;;0.98;0.98;;;17.60;99.90;;;;;;5021276;28;20411;-70
2022/09/15 03:21:28;;;;;;;3.20;1.15;;;17.40;99.90;;;;;;5023879;28;20400;-70
2022/09/15 03:23:54;;;;;;;2.60;1.20;;;17.40;99.90;;;;;;5022557;28;20986;-69
2022/09/15 03:26:19;;;;;;;1.67;1.20;;;17.30;99.90;;;;;;5023286;28;20462;-70
2022/09/15 03:28:45;;;;;;;1.80;0.90;;;17.20;99.90;;;;;;5027025;28;20624;-70
2022/09/15 03:31:11;;;;;;;1.73;1.20;;;17.30;99.90;;;;;;5016939;28;20440;-73
2022/09/15 03:33:37;;;;;;;2.20;1.30;;;17.10;99.90;;;;;;5026923;28;20413;-72
2022/09/15 03:36:03;;;;;;;1.30;1.20;;;16.90;99.90;;;;;;5024535;28;20482;-72
2022/09/15 03:38:30;;;;;;;3.40;1.30;;;17.00;99.90;;;;;;5022995;28;20381;-72
2022/09/15 03:41:01;;;;;;;2.08;1.10;;;17.00;99.90;;;;;;5020089;28;20426;-71
2022/09/15 03:43:28;;;;;;;1.43;1.30;;;16.90;99.90;;;;;;5022011;28;20494;-70
2022/09/15 03:45:54;;;;;;;1.80;1.23;;;16.90;99.90;;;;;;5025506;28;20553;-71
2022/09/15 03:48:20;;;;;;;5.00;1.70;;;16.80;99.90;;;;;;5023771;28;20410;-70
2022/09/15 03:50:46;;;;;;;1.60;1.43;;;16.80;99.90;;;;;;5025021;28;20410;-71
2022/09/15 03:53:12;;;;;;;1.70;1.50;;;16.90;99.90;;;;;;5025198;28;20437;-71
2022/09/15 03:55:37;;;;;;;1.50;1.30;;;16.90;99.90;;;;;;5017732;28;20422;-71
2022/09/15 03:58:03;;;;;;;1.60;1.30;;;16.80;99.90;;;;;;5017244;28;20970;-70
2022/09/15 04:00:28;;;;;;;2.30;1.33;;;16.80;99.90;;;;;;5034244;28;20387;-71
2022/09/15 04:02:54;;;;;;;2.03;1.20;;;16.80;99.90;;;;;;5034457;28;20394;-71
2022/09/15 04:05:19;;;;;;;2.00;1.50;;;16.90;99.90;;;;;;5031074;28;20425;-71
2022/09/15 04:07:45;;;;;;;3.83;1.70;;;16.80;99.90;;;;;;5021176;28;20438;-71
2022/09/15 04:10:11;;;;;;;1.60;1.50;;;16.80;99.90;;;;;;5029198;28;20399;-71
2022/09/15 04:12:37;;;;;;;1.70;1.33;;;16.80;99.90;;;;;;5028205;28;20491;-70
2022/09/15 04:15:03;;;;;;;3.50;1.60;;;16.80;99.90;;;;;;5026504;28;20769;-71
2022/09/15 04:17:28;;;;;;;1.40;1.30;;;16.90;99.90;;;;;;5020902;28;20851;-71
2022/09/15 04:19:54;;;;;;;3.25;1.58;;;16.80;99.90;;;;;;5025664;28;20492;-71
2022/09/15 04:22:20;;;;;;;2.70;1.40;;;16.80;99.90;;;;;;5016109;28;20412;-71
2022/09/15 04:24:48;;;;;;;1.00;0.90;;;17.10;99.90;;;;;;5019892;28;20411;-71
2022/09/15 04:27:15;;;;;;;1.50;1.20;;;17.10;99.90;;;;;;5011853;28;20419;-72
2022/09/15 04:29:41;;;;;;;1.77;1.10;;;17.00;99.90;;;;;;5022862;28;20411;-71
2022/09/15 04:32:06;;;;;;;1.90;1.20;;;17.10;99.90;;;;;;5023684;28;20402;-70
2022/09/15 04:34:32;;;;;;;1.80;1.13;;;17.30;99.90;;;;;;5012531;28;20466;-71
2022/09/15 04:36:57;;;;;;;1.40;1.00;;;17.20;99.90;;;;;;5025433;28;20415;-71
2022/09/15 04:39:24;;;;;;;2.38;0.90;;;17.10;99.90;;;;;;5005523;28;20894;-71
2022/09/15 04:41:49;;;;;;;1.37;0.90;;;17.30;99.90;;;;;;5068536;23;20927;-77
2022/09/15 04:44:15;;;;;;;0.97;0.83;;;17.20;99.90;;;;;;5064004;28;20404;-77
2022/09/15 04:46:41;;;;;;;1.42;1.00;;;17.30;99.90;;;;;;5063593;28;20397;-77
2022/09/15 04:49:06;;;;;;;1.58;1.10;;;17.20;99.90;;;;;;5066994;28;20453;-77
2022/09/15 04:51:32;;;;;;;1.60;1.00;;;17.10;99.90;;;;;;5064027;28;20451;-77
2022/09/15 04:53:57;;;;;;;1.27;1.00;;;17.30;99.90;;;;;;5048565;28;20431;-76
2022/09/15 04:56:25;;;;;;;1.45;0.90;;;17.40;99.90;;;;;;5052800;28;20940;-76
2022/09/15 04:58:53;;;;;;;1.02;0.90;;;17.40;99.90;;;;;;5050963;28;20405;-77
2022/09/15 05:01:22;;;;;;;1.73;1.13;;;17.40;99.90;;;;;;5057753;28;20490;-77
2022/09/15 05:03:48;;;;;;;3.03;1.00;;;17.40;99.90;;;;;;5043114;28;20449;-77
2022/09/15 05:06:18;;;;;;;1.23;0.70;;;17.40;99.90;;;;;;5060740;28;20888;-76
2022/09/15 05:08:48;;;;;;;3.30;0.90;;;17.50;99.90;;;;;;5060301;28;20399;-76
2022/09/15 05:11:14;;;;;;;1.00;0.90;;;17.50;99.90;;;;;;5049461;28;20405;-75
2022/09/15 05:13:40;;;;;;;1.90;1.00;;;17.60;99.90;;;;;;5052987;28;20412;-75
2022/09/15 05:16:11;;;;;;;1.27;1.07;;;17.70;99.90;;;;;;5041862;28;20407;-75
2022/09/15 05:18:46;;;;;;;1.55;1.05;;;17.80;99.90;;;;;;5052782;28;20535;-75
2022/09/15 05:21:13;;;;;;;2.00;0.93;;;17.70;99.90;;;;;;5058709;28;20397;-75
2022/09/15 05:23:39;;;;;;;1.40;0.80;;;17.70;99.90;;;;;;5060192;28;20531;-74
2022/09/15 05:26:10;;;;;;;2.00;1.20;;;17.60;99.90;;;;;;5058272;28;20545;-74
2022/09/15 05:28:37;;;;;;;1.85;0.90;;;17.70;99.90;;;;;;5055670;28;20404;-74
2022/09/15 05:31:09;;;;;;;2.40;0.85;;;17.60;99.90;;;;;;5054060;28;20738;-74
2022/09/15 05:33:35;;;;;;;1.17;0.95;;;17.70;99.90;;;;;;5050925;28;20435;-75
2022/09/15 05:36:01;;;;;;;1.60;1.30;;;17.70;99.90;;;;;;5041788;28;20411;-73
2022/09/15 05:38:29;;;;;;;1.50;1.20;;;17.70;99.90;;;;;;5061456;28;20395;-74
2022/09/15 05:41:04;;;;;;;1.05;0.85;;;17.70;99.90;;;;;;5055590;28;20763;-73
2022/09/15 05:43:31;;;;;;;1.13;1.02;;;17.80;99.90;;;;;;5056504;28;20406;-75
2022/09/15 05:45:57;;;;;;;1.20;1.10;;;17.80;99.90;;;;;;5042690;28;20455;-74
2022/09/15 05:48:23;;;;;;;1.67;1.00;;;17.90;99.90;;;;;;5043368;28;20415;-74
2022/09/15 05:50:50;;;;;;;1.52;1.10;;;17.80;99.90;;;;;;5054455;28;20419;-73
2022/09/15 05:53:15;;;;;;;1.73;1.08;;;17.80;99.90;;;;;;5043125;28;20407;-73
2022/09/15 05:55:41;;;;;;;2.10;1.00;;;17.90;99.90;;;;;;5061925;28;20468;-72
2022/09/15 05:58:07;;;;;;;1.30;1.20;;;17.90;99.90;;;;;;5053291;28;20408;-72
2022/09/15 06:00:32;;;;;;;1.20;1.10;;;17.90;99.90;;;;;;5070182;28;20493;-72
2022/09/15 06:02:58;;;;;;;2.20;1.10;;;17.80;99.90;;;;;;5057101;28;20452;-72
2022/09/15 06:05:23;;;;;;;2.50;1.30;;;17.70;99.90;;;;;;5038489;28;20403;-72
2022/09/15 06:07:54;;;;;;;1.23;1.13;;;17.80;99.90;;;;;;5030192;28;20714;-72
2022/09/15 06:10:24;;;;;;;1.10;0.93;;;17.80;99.90;;;;;;5030592;28;20435;-72
2022/09/15 06:12:52;;;;;;;2.50;1.43;;;17.80;99.90;;;;;;5032530;28;20394;-72
2022/09/15 06:15:22;;;;;;;1.20;1.00;;;17.80;99.90;;;;;;5036856;28;20439;-71
2022/09/15 06:17:48;;;;;;;3.08;1.38;;;17.80;99.90;;;;;;5050191;28;20422;-71
2022/09/15 06:20:14;;;;;;;3.13;0.90;;;17.80;99.90;;;;;;5056358;28;20393;-72
2022/09/15 06:22:39;;;;;;;1.10;1.00;;;17.80;99.90;;;;;;5064298;28;20422;-71
2022/09/15 06:25:06;;;;;;;2.80;1.10;;;17.80;99.90;;;;;;5049339;28;20385;-71
2022/09/15 06:27:32;;;;;;;1.30;1.10;;;17.70;99.90;;;;;;5048493;28;20405;-71
2022/09/15 06:29:58;;;;;;;1.60;1.20;;;17.70;99.90;;;;;;5049815;28;20387;-71
2022/09/15 06:32:24;;;;;;;1.65;1.20;;;17.70;99.90;;;;;;5049030;28;20392;-71
2022/09/15 06:34:49;;;;;;;3.00;1.17;;;17.70;99.90;;;;;;5049495;28;20382;-70
2022/09/15 06:37:15;;;;;;;2.30;1.20;;;17.80;99.90;;;;;;5049594;28;20377;-71
2022/09/15 06:39:44;;;;;;;1.60;1.20;;;17.80;99.90;;;;;;5048683;28;20390;-71
2022/09/15 06:42:10;;;;;;;1.50;1.20;;;17.80;99.90;;;;;;5049417;28;20879;-71
2022/09/15 06:44:36;;;;;;;2.50;1.50;;;17.90;99.90;;;;;;5049303;28;20538;-72
2022/09/15 06:47:02;;;;;;;2.30;1.35;;;17.90;99.90;;;;;;5049651;28;20887;-71
2022/09/15 06:49:30;;;;;;;1.58;1.30;;;17.90;99.90;;;;;;5049214;28;20385;-71
2022/09/15 06:51:56;;;;;;;3.30;1.20;;;17.90;99.90;;;;;;5049598;28;20416;-71
2022/09/15 06:54:21;;;;;;;2.20;1.30;;;18.00;99.90;;;;;;5049077;28;20381;-73
2022/09/15 06:56:47;;;;;;;2.50;1.40;;;18.00;99.90;;;;;;5049700;28;20381;-73
2022/09/15 06:59:14;;;;;;;2.23;1.40;;;18.00;99.90;;;;;;5049901;28;20460;-73
2022/09/15 07:01:40;;;;;;;1.90;1.33;;;18.10;99.90;;;;;;5049648;28;20462;-74
2022/09/15 07:04:08;;;;;;;3.07;1.23;;;18.10;99.90;;;;;;5040175;28;20403;-73
2022/09/15 07:06:36;;;;;;;2.97;1.35;;;18.10;99.90;;;;;;5036854;28;20899;-73
2022/09/15 07:09:03;;;;;;;1.50;1.30;;;18.10;99.90;;;;;;5038423;28;20434;-73
2022/09/15 07:11:29;;;;;;;1.60;1.30;;;18.10;99.90;;;;;;5036061;28;20410;-74
2022/09/15 07:13:55;;;;;;;1.70;1.50;;;18.20;99.90;;;;;;5043741;28;20468;-74
2022/09/15 07:16:21;;;;;;;1.30;1.13;;;18.20;99.90;;;;;;5047709;28;20464;-74
2022/09/15 07:18:48;;;;;;;1.50;1.40;;;18.20;99.90;;;;;;5044562;28;20863;-74
2022/09/15 07:21:17;;;;;;;1.95;1.30;;;18.20;99.90;;;;;;5044790;28;20764;-73
2022/09/15 07:23:43;;;;;;;2.75;1.40;;;18.20;99.90;;;;;;5043325;28;20399;-73
2022/09/15 07:26:15;;;;;;;3.42;2.80;;;18.20;99.90;;;;;;5053066;28;20805;-73
2022/09/15 07:28:42;;;;;;;2.60;2.25;;;18.20;99.90;;;;;;5046887;28;20518;-73
2022/09/15 07:31:09;;;;;;;7.47;5.65;;;18.20;99.90;;;;;;5045725;28;20550;-73
2022/09/15 07:33:35;;;;;;;3.30;1.50;;;18.20;99.90;;;;;;5053086;28;20389;-73
2022/09/15 07:36:03;;;;;;;2.30;1.38;;;18.30;99.90;;;;;;5049666;28;20402;-73
2022/09/15 07:38:28;;;;;;;3.40;1.45;;;18.30;99.90;;;;;;5052963;28;20413;-73
2022/09/15 07:40:54;;;;;;;1.60;1.40;;;18.40;99.90;;;;;;5052581;28;20922;-73
2022/09/15 07:43:20;;;;;;;3.17;1.73;;;18.50;99.90;;;;;;5052185;28;20885;-73
2022/09/15 07:45:45;;;;;;;1.70;1.40;;;18.60;99.90;;;;;;5043896;28;20417;-73
2022/09/15 07:48:11;;;;;;;1.92;1.80;;;18.50;99.90;;;;;;5044536;28;20414;-74
2022/09/15 07:50:37;;;;;;;2.20;1.70;;;18.60;99.90;;;;;;5043438;28;20409;-73
2022/09/15 07:53:03;;;;;;;1.90;1.70;;;18.60;99.90;;;;;;5033953;28;20403;-73
2022/09/15 07:55:29;;;;;;;2.30;1.98;;;18.60;99.90;;;;;;5042313;28;20397;-73
2022/09/15 07:58:02;;;;;;;2.60;2.40;;;18.70;99.90;;;;;;5046694;28;20442;-73
2022/09/15 08:00:28;;;;;;;3.20;1.90;;;18.80;99.90;;;;;;5052213;28;20953;-74
2022/09/15 08:02:54;;;;;;;3.15;2.00;;;18.90;99.90;;;;;;5051883;28;20385;-74
2022/09/15 08:05:21;;;;;;;2.95;2.13;;;19.00;99.90;;;;;;5049131;28;20409;-72
2022/09/15 08:07:46;;;;;;;2.70;1.90;;;19.10;99.90;;;;;;5044279;28;20907;-72
2022/09/15 08:10:12;;;;;;;1.97;1.80;;;19.10;99.90;;;;;;5044572;28;20490;-75
2022/09/15 08:12:39;;;;;;;2.90;1.80;;;19.20;99.90;;;;;;5045684;28;20432;-74
2022/09/15 08:15:05;;;;;;;4.45;1.70;;;19.30;99.90;;;;;;5051995;28;20518;-74
2022/09/15 08:17:31;;;;;;;3.10;1.90;;;19.30;99.90;;;;;;5044110;28;20396;-72
2022/09/15 08:19:57;;;;;;;3.20;2.00;;;19.40;99.90;;;;;;5052117;28;20390;-72
2022/09/15 08:22:22;;;;;;;1.98;1.50;;;19.50;99.90;;;;;;5051803;28;20404;-72
2022/09/15 08:24:48;;;;;;;2.90;1.50;;;19.50;99.90;;;;;;5051584;28;20389;-72
2022/09/15 08:27:13;;;;;;;1.50;1.40;;;19.40;99.90;;;;;;5047828;28;20923;-72
2022/09/15 08:29:39;;;;;;;2.15;1.40;;;19.40;99.90;;;;;;5046650;28;20405;-73
2022/09/15 08:32:05;;;;;;;1.83;1.60;;;19.30;99.90;;;;;;5051684;28;20386;-73
2022/09/15 08:34:30;;;;;;;6.90;6.20;;;19.20;99.90;;;;;;5031657;28;20386;-72
2022/09/15 08:36:56;;;;;;;2.38;1.55;;;19.30;99.90;;;;;;5030149;28;20470;-72
2022/09/15 08:39:21;;;;;;;1.40;1.30;;;19.20;99.90;;;;;;5031625;28;20395;-72
2022/09/15 08:41:50;;;;;;;2.27;1.47;;;19.20;99.90;;;;;;5041189;28;20409;-73
2022/09/15 08:44:19;;;;;;;2.70;1.30;;;19.20;99.90;;;;;;5045829;28;20413;-74
2022/09/15 08:47:19;;;;;;;1.90;1.20;;;19.20;99.90;;;;;;5046338;28;20777;-73
2022/09/15 08:50:03;;;;;;;3.10;1.70;;;19.20;99.90;;;;;;5045889;28;20885;-73
2022/09/15 08:52:33;;;;;;;1.10;1.00;;;19.10;99.90;;;;;;5050212;28;21380;-73
2022/09/15 08:55:17;;;;;;;2.50;1.15;;;19.10;99.90;;;;;;5051613;28;20785;-74
2022/09/15 08:57:43;;;;;;;2.50;1.00;;;19.10;99.90;;;;;;5051539;28;20468;-73
2022/09/15 09:00:14;;;;;;;1.40;0.80;;;19.20;99.90;;;;;;5051422;28;20396;-73
2022/09/15 09:02:58;;;;;;;1.30;1.20;;;19.30;99.90;;;;;;5049943;28;20450;-74
2022/09/15 09:05:45;;;;;;;1.10;1.00;;;19.10;99.90;;;;;;5051664;28;20385;-74
2022/09/15 09:08:32;;;;;;;1.30;1.17;;;19.20;99.90;;;;;;5052080;28;20429;-75
2022/09/15 09:11:03;;;;;;;1.52;1.35;;;19.30;99.90;;;;;;5051734;28;20386;-73
2022/09/15 09:13:55;;;;;;;1.30;1.00;;;19.30;99.90;;;;;;5049680;28;20392;-73
2022/09/15 09:16:33;;;;;;;1.48;1.00;;;19.30;99.90;;;;;;5051460;28;20480;-73
2022/09/15 09:19:07;;;;;;;2.00;0.93;;;19.30;99.90;;;;;;5050952;28;20801;-74
2022/09/15 09:21:38;;;;;;;2.03;1.20;;;19.30;99.90;;;;;;5050818;28;20422;-74
2022/09/15 09:24:05;;;;;;;1.47;1.00;;;19.30;99.90;;;;;;5037912;28;20387;-74
2022/09/15 09:26:35;;;;;;;1.60;1.10;;;19.10;99.90;;;;;;5029609;28;20407;-74
2022/09/15 09:29:14;;;;;;;0.90;0.80;;;19.00;99.90;;;;;;5030974;28;21072;-73
2022/09/15 09:31:41;;;;;;;2.10;1.00;;;19.00;99.90;;;;;;5029371;28;20897;-74
2022/09/15 09:34:34;;;;;;;2.17;0.90;;;19.10;99.90;;;;;;5042259;28;20397;-74
2022/09/15 09:37:08;;;;;;;1.02;1.00;;;19.10;99.90;;;;;;5048990;28;20385;-74
2022/09/15 09:39:34;;;;;;;2.03;0.95;;;19.10;99.90;;;;;;5049163;28;20458;-75
2022/09/15 09:42:01;;;;;;;0.90;0.90;;;19.10;99.90;;;;;;5050582;28;20405;-75
2022/09/15 09:44:30;;;;;;;2.60;0.93;;;19.10;99.90;;;;;;5050136;28;20392;-74
2022/09/15 09:46:57;;;;;;;3.90;1.40;;;19.00;99.90;;;;;;5042634;28;20414;-75
2022/09/15 09:49:25;;;;;;;2.20;1.30;;;19.00;99.90;;;;;;5037641;28;20781;-74
2022/09/15 09:52:01;;;;;;;2.13;1.00;;;19.00;99.90;;;;;;5039356;28;20798;-75
2022/09/15 09:54:28;;;;;;;1.30;0.98;;;19.20;99.90;;;;;;5047539;28;20386;-74
2022/09/15 09:56:55;;;;;;;0.70;0.70;;;19.30;99.90;;;;;;5050378;28;20473;-73
2022/09/15 09:59:30;;;;;;;1.00;0.80;;;19.30;99.90;;;;;;5050178;28;20393;-74
2022/09/15 10:02:10;;;;;;;0.80;0.80;;;19.40;99.90;;;;;;5049582;28;20755;-74
2022/09/15 10:04:37;;;;;;;1.60;1.40;;;19.50;99.90;;;;;;5050105;28;20755;-75
2022/09/15 10:07:04;;;;;;;1.00;0.90;;;19.50;99.90;;;;;;5050244;28;20385;-74
2022/09/15 10:09:29;;;;;;;0.98;0.90;;;19.60;99.90;;;;;;5050249;28;20778;-74
2022/09/15 10:11:58;;;;;;;1.65;0.80;;;19.70;99.90;;;;;;5050047;28;20462;-75
2022/09/15 10:14:34;;;;;;;1.40;1.10;;;19.70;99.90;;;;;;5049829;28;20418;-75
2022/09/15 10:17:10;;;;;;;0.98;0.85;;;19.80;99.90;;;;;;5050192;28;20459;-75
2022/09/15 10:19:46;;;;;;;2.90;1.40;;;19.90;99.90;;;;;;5049962;28;20386;-74
2022/09/15 10:22:31;;;;;;;1.10;0.90;;;20.00;99.90;;;;;;5050098;28;20381;-74
2022/09/15 10:24:59;;;;;;;1.52;1.00;;;19.90;99.90;;;;;;5030321;28;20379;-75
2022/09/15 10:27:32;;;;;;;1.80;1.08;;;20.00;99.90;;;;;;5030080;28;20418;-75
2022/09/15 10:30:11;;;;;;;1.52;0.90;;;20.00;99.90;;;;;;5028689;28;20398;-75
2022/09/15 10:32:37;;;;;;;2.33;0.90;;;20.10;99.90;;;;;;5029731;28;20386;-75
2022/09/15 10:35:15;;;;;;;1.45;0.80;;;20.10;99.90;;;;;;5029903;28;20417;-72
2022/09/15 10:37:43;;;;;;;3.30;1.60;;;20.10;99.90;;;;;;5028718;28;20743;-73
2022/09/15 10:40:31;;;;;;;1.30;0.80;;;20.10;99.90;;;;;;5028476;28;20397;-74
2022/09/15 10:43:32;;;;;;;1.10;1.00;;;20.10;99.90;;;;;;5099296;23;20845;-73
2022/09/15 10:46:10;;;;;;;1.40;1.13;;;20.20;99.90;;;;;;5087045;28;20397;-73
2022/09/15 10:48:47;;;;;;;0.90;0.90;;;20.30;99.90;;;;;;5089986;28;20401;-72
2022/09/15 10:51:25;;;;;;;1.20;1.00;;;20.40;99.90;;;;;;5090018;28;20385;-73
2022/09/15 10:54:11;;;;;;;1.80;1.20;;;20.40;99.90;;;;;;5088419;28;20424;-75
2022/09/15 10:56:48;;;;;;;1.42;1.10;;;20.50;99.90;;;;;;5090153;28;20795;-72
2022/09/15 10:59:32;;;;;;;2.05;1.10;;;20.50;99.90;;;;;;5091905;28;20381;-73
2022/09/15 11:02:13;;;;;;;1.00;0.90;;;20.40;99.90;;;;;;5092635;28;20416;-73
2022/09/15 11:04:57;;;;;;;1.38;1.20;;;20.40;99.90;;;;;;5092289;28;20398;-74
2022/09/15 11:07:46;;;;;;;1.40;0.90;;;20.40;99.90;;;;;;5092396;28;20415;-73
2022/09/15 11:10:17;;;;;;;0.80;0.80;;;20.20;99.90;;;;;;5093735;28;20955;-73
2022/09/15 11:13:00;;;;;;;1.10;1.00;;;20.20;99.90;;;;;;5093394;28;20443;-73
2022/09/15 11:15:46;;;;;;;2.45;0.80;;;20.20;99.90;;;;;;5089848;28;20428;-72
2022/09/15 11:18:27;;;;;;;2.10;1.15;;;20.20;99.90;;;;;;5091602;28;20783;-72
2022/09/15 11:21:16;;;;;;;1.40;1.00;;;20.20;99.90;;;;;;5096837;28;20376;-73
2022/09/15 11:23:51;;;;;;;1.00;0.90;;;20.10;99.90;;;;;;5086876;28;20862;-73
2022/09/15 11:26:32;;;;;;;1.33;0.70;;;20.10;99.90;;;;;;5093286;28;20378;-71
2022/09/15 11:29:17;;;;;;;0.90;0.90;;;20.10;99.90;;;;;;5088860;28;20398;-72
2022/09/15 11:31:48;;;;;;;1.00;0.90;;;20.10;99.90;;;;;;5085715;28;20503;-71
2022/09/15 11:34:25;;;;;;;2.10;1.30;;;20.00;99.90;;;;;;5084925;28;20829;-72
2022/09/15 11:37:12;;;;;;;2.20;1.00;;;20.00;99.90;;;;;;5091766;28;20397;-73
2022/09/15 11:40:00;;;;;;;1.80;1.00;;;20.00;99.90;;;;;;5086705;28;20919;-73
2022/09/15 11:42:36;;;;;;;1.40;1.00;;;20.00;99.90;;;;;;5090426;28;20895;-73
2022/09/15 11:45:04;;;;;;;1.20;1.10;;;19.90;99.90;;;;;;5091392;28;20397;-73
2022/09/15 11:47:41;;;;;;;1.80;1.13;;;19.80;99.90;;;;;;5087056;28;20403;-72
2022/09/15 11:50:32;;;;;;;1.27;1.17;;;19.80;99.90;;;;;;5071942;28;20384;-73
2022/09/15 11:53:29;;;;;;;1.23;1.13;;;19.80;99.90;;;;;;5086170;28;20776;-72
2022/09/15 11:56:24;;;;;;;1.53;1.17;;;19.90;99.90;;;;;;5092728;28;20500;-72
2022/09/15 11:59:02;;;;;;;1.40;1.30;;;20.00;99.90;;;;;;5084681;28;20892;-72
2022/09/15 12:02:18;;;;;;;2.22;1.20;;;20.00;99.90;;;;;;5088025;28;20890;-72
2022/09/15 12:04:57;;;;;;;1.10;1.00;;;19.90;99.90;;;;;;5061871;28;20458;-71
2022/09/15 12:07:27;;;;;;;1.40;1.00;;;20.00;99.90;;;;;;5087575;28;20402;-72
2022/09/15 12:09:54;;;;;;;1.10;0.90;;;19.80;99.90;;;;;;5090375;28;20401;-72
2022/09/15 12:12:21;;;;;;;2.40;1.30;;;19.70;99.90;;;;;;5089924;28;20403;-72
2022/09/15 12:14:48;;;;;;;1.80;1.67;;;19.50;99.90;;;;;;5089742;28;20398;-73
2022/09/15 12:17:36;;;;;;;1.98;1.40;;;19.10;99.90;;;;;;5088927;28;20437;-74
2022/09/15 12:20:26;;;;;;;3.22;1.30;;;18.70;99.90;;;;;;5084972;28;20475;-79
2022/09/15 12:23:10;;;;;;;1.65;0.98;;;17.60;99.90;;;;;;5085507;28;20775;-78
2022/09/15 12:26:14;;;;;;;1.37;1.10;;;17.00;99.90;;;;;;5083298;28;20822;-77
2022/09/15 12:28:41;;;;;;;1.58;1.42;;;17.00;99.90;;;;;;5088220;28;20425;-79
2022/09/15 12:31:28;;;;;;;2.40;1.70;;;16.90;99.90;;;;;;5095855;28;20394;-77
2022/09/15 12:34:00;;;;;;;1.70;1.60;;;16.50;99.90;;;;;;5108235;28;20370;-75
2022/09/15 12:36:29;;;;;;;1.70;1.60;;;16.50;99.90;;;;;;5105298;28;20392;-76
2022/09/15 12:38:57;;;;;;;1.80;1.50;;;16.50;99.90;;;;;;5102270;28;20408;-76
2022/09/15 12:41:22;;;;;;;2.58;1.90;;;16.50;99.90;;;;;;5102885;28;20402;-76
2022/09/15 12:43:58;;;;;;;3.00;2.57;;;16.60;99.90;;;;;;5105086;28;20436;-76
2022/09/15 12:46:25;;;;;;;2.50;2.30;;;16.60;99.90;;;;;;5106620;28;20432;-76
2022/09/15 12:48:55;;;;;;;2.83;1.80;;;16.40;99.90;;;;;;5109845;28;20408;-76
2022/09/15 12:51:25;;;;;;;2.10;1.90;;;16.20;99.90;;;;;;5095006;28;20394;-76
2022/09/15 12:53:54;;;;;;;2.33;2.13;;;16.20;99.90;;;;;;5103237;28;20406;-77
2022/09/15 12:56:26;;;;;;;2.47;2.28;;;16.20;99.90;;;;;;5081233;28;20406;-77
2022/09/15 12:58:53;;;;;;;2.92;2.50;;;16.20;99.90;;;;;;5085142;28;20393;-76
2022/09/15 13:01:21;;;;;;;2.80;2.50;;;16.20;99.90;;;;;;5081798;28;20404;-77
2022/09/15 13:03:48;;;;;;;3.40;3.10;;;16.30;99.90;;;;;;5077410;28;20797;-77
2022/09/15 13:06:26;;;;;;;2.90;2.60;;;16.30;99.90;;;;;;5076120;28;20453;-77
2022/09/15 13:09:01;;;;;;;3.20;2.90;;;16.40;99.90;;;;;;5079917;28;20840;-77
2022/09/15 13:11:38;;;;;;;4.00;2.60;;;16.20;99.90;;;;;;5089881;28;20463;-77